| Date | Time | Temp. (oF) | Dew Point (oF) | Rel. Hum. (%) | Press. (in.) | Wind Dir. | Wind Speed (mph) | Hourly Rainfall (in.) |
|
|---|---|---|---|---|---|---|---|---|---|
| 1 | 03/03 | 00:00 | 25 | 15 | 67 | 30.39 | W | 0 | 0.00 |
| 2 | 03/02 | 23:00 | 26 | 15 | 65 | 30.38 | SW | 3 | 0.00 |
| 3 | 03/02 | 22:00 | 27 | 16 | 63 | 30.37 | W | 4 | 0.00 |
| 4 | 03/02 | 21:00 | 28 | 15 | 60 | 30.35 | W | 5 | 0.00 |
| 5 | 03/02 | 20:00 | 29 | 15 | 57 | 30.35 | W | 4 | 0.00 |
| 6 | 03/02 | 19:00 | 30 | 16 | 56 | 30.32 | WNW | 3 | 0.00 |
| 7 | 03/02 | 18:00 | 32 | 16 | 52 | 30.28 | WNW | 10 | 0.00 |
| 8 | 03/02 | 17:00 | 34 | 16 | 49 | 30.24 | WNW | 13 | 0.00 |
| 9 | 03/02 | 16:00 | 35 | 18 | 50 | 30.22 | WNW | 14 | 0.00 |
| 10 | 03/02 | 15:00 | 36 | 19 | 50 | 30.22 | N | 14 | 0.00 |
| 11 | 03/02 | 14:00 | 35 | 19 | 52 | 30.21 | N | 17 | 0.00 |
| 12 | 03/02 | 13:00 | 34 | 18 | 52 | 30.23 | WNW | 6 | 0.00 |
| 13 | 03/02 | 12:00 | 33 | 21 | 62 | 30.24 | WNW | 13 | 0.00 |
| 14 | 03/02 | 11:00 | 32 | 21 | 65 | 30.24 | NNW | 16 | 0.00 |
| 15 | 03/02 | 10:00 | 33 | 26 | 77 | 30.21 | N | 12 | 0.00 |
| 16 | 03/02 | 09:00 | 32 | 30 | 93 | 30.18 | W | 7 | 0.00 |
| 17 | 03/02 | 08:00 | 29 | 28 | 97 | 30.14 | N | 1 | 0.00 |
| 18 | 03/02 | 07:00 | 28 | 27 | 97 | 30.11 | W | 1 | 0.00 |
| 19 | 03/02 | 06:00 | 28 | 27 | 97 | 30.09 | WNW | 4 | 0.00 |
| 20 | 03/02 | 05:00 | 28 | 27 | 97 | 30.07 | N | 3 | 0.00 |
| 21 | 03/02 | 04:00 | 29 | 28 | 97 | 30.06 | N | 3 | 0.00 |
| 22 | 03/02 | 03:00 | 29 | 28 | 97 | 30.09 | NNE | 0 | 0.00 |
| 23 | 03/02 | 02:00 | 29 | 28 | 97 | 30.10 | NNW | 0 | 0.00 |
| 24 | 03/02 | 01:00 | 29 | 28 | 97 | 30.12 | SSW | 0 | 0.00 |